ウルムチ の空港の天気 - METARとTAF

ウルムチ地窩堡国際空港 ( ZWWW / URC ) - 中国 新疆ウイグル自治区ウルムチ市
飛行場実況気象(Metar)
観測時間02/18 06:30 CST (02/17 22:30 UTC)
風向・風速不定 1m/s
視程2000m
天気現象もや
なし
気温-16℃
湿度85%
気圧1016hPa
METARZWWW 172230Z VRB01MPS 2000 BR NSC M16/M18 Q1016 NOSIG
過去の天気等 Google飛行場航空写真 Wunderground天気予報

過去48時間のMETAR

飛行場予報(TAF)
発表時間: 2/17 23:06 CST (2/17 15:06 UTC)
予報対象時間: 18日2時 CST ~ 19日2時 CST
風向・風速南 3m/s
視程1600m
天気現象もや
なし
18日5時 CST ~ 18日11時 CST に一時的に
視程1000m
天気現象もや
18日12時 CST ~ 18日13時 CST に徐々に
風向・風速北 4m/s
18日21時 CST ~ 18日22時 CST に徐々に
風向・風速南 4m/s
TAF ZWWW 171506Z 1718/1818 18003MPS 1600 BR NSC TXM12/09Z TNM18/00Z
TEMPO 1721/1803 1000 BR
BECMG 1804/1805 36004MPS
BECMG 1813/1814 18004MPS